Pas de vigilance météorologique particulière.    Il n'y a aucun avertissement


Thunder radar more information blitzortung!


Rain radar more information rain snow radar


Visitez nos sites météorologiques autres:

Template documentation
and downloads

And another site



Rapports METAR proximité

   
EBAW - Antwerp
Mise à jour: 20-08-2018 16:20
Nuageux  
Nuageux  
   Vent: NNO 7.4 km/h
Vent: NNO 7.4 km/h
Température: 22°C
Point de rosée: 16°C
Humidité: 69%
Baromètre: 1020 hPa
Nuageux: Nuageux
visibilité: More than 10 km
Détails des nuages: Peu de nuages 2500 ft,
Nuageux 4800 ft
EBAW 201420Z 34004KT 310V010 9999 FEW025 BKN048 22/16 Q1020 NOSIG
EBLG - Liège
Mise à jour: 20-08-2018 16:20
Peu de nuages  
Peu de nuages  
   Vent: North 7.4 km/h
Vent: North 7.4 km/h
Température: 22°C
Point de rosée: 16°C
Humidité: 69%
Baromètre: 1021 hPa
Nuageux: Peu de nuages
visibilité: More than 10 km
Détails des nuages: Peu de nuages 2500 ft
EBLG 201420Z 36004KT 320V040 9999 FEW025 22/16 Q1021 NOSIG
EBCV - Mons/Bergen
Mise à jour: 20-08-2018 15:55
Nuageux  
Nuageux  
   Vent: ONO 11.1 km/h
Vent: ONO 11.1 km/h
Température: 22°C
Point de rosée: 17°C
Humidité: 73%
Baromètre: 1021 hPa
Nuageux: Nuageux
visibilité: More than 10 km
Détails des nuages: Nuageux 3600 ft
EBCV 201355Z AUTO 30006KT 9999 OVC036/// 22/17 Q1021 BLU
EHBK - Maastricht
Mise à jour: 20-08-2018 16:25
Nuageux  
Nuageux  
   Vent: OSO 11.1 km/h
Vent: OSO 11.1 km/h
Température: 23°C
Point de rosée: 18°C
Humidité: 74%
Baromètre: 1020 hPa
Nuageux: Nuageux
visibilité: More than 10 km
Détails des nuages: Partiellement nuageux 2300 ft,
Nuageux 2700 ft,
Nuageux 3300 ft
EHBK 201425Z AUTO 25006KT 210V310 9999 SCT023 BKN027 BKN033 23/18 Q1020 NOSIG
ELLX - Luxemburg
Mise à jour: 20-08-2018 16:20
Nuageux  
Nuageux  
   Vent: NO 11.1 km/h
Vent: NO 11.1 km/h
Température: 23°C
Point de rosée: 16°C
Humidité: 65%
Baromètre: 1021 hPa
Nuageux: Nuageux
visibilité: More than 10 km
Détails des nuages: Nuageux 4100 ft
ELLX 201420Z 32006KT 270V360 9999 BKN041 23/16 Q1021 NOSIG
EBOS - Oostende
Mise à jour: 20-08-2018 16:20
Nuageux  
Nuageux  
   Vent: NO 13 km/h
Vent: NO 13 km/h
Température: 21°C
Point de rosée: 16°C
Humidité: 73%
Baromètre: 1021 hPa
Nuageux: Nuageux
visibilité: More than 10 km
Détails des nuages: Peu de nuages 2000 ft,
Nuageux 4800 ft
EBOS 201420Z 31007KT 9999 FEW020 BKN048 21/16 Q1021 NOSIG

Script développé par  Saratoga-weather.org Adapté pour le modèle par  Weerstation Leuven

Vous trouverez notre info météo Également à:

Weather Underground

Équipement que nous utilisons:

Station de Météo
Davis VP2

Programme Météo
Meteohub

Ordinateur Météo
RaspberryPI 2

Provider
OVH

Davis VP2

Meteohub

RaspberryPI 2

OVH